sensor_id;sensor_type;location;lat;lon;timestamp;pressure;altitude;pressure_sealevel;temperature;humidity
1207;BME280;593;53.184;8.216;2023-09-19T00:01:19;100012.50;;;19.53;100.00
1207;BME280;593;53.184;8.216;2023-09-19T00:03:45;100020.34;;;19.51;100.00
1207;BME280;593;53.184;8.216;2023-09-19T00:06:11;100018.72;;;19.50;100.00
1207;BME280;593;53.184;8.216;2023-09-19T00:08:38;100027.38;;;19.48;100.00
1207;BME280;593;53.184;8.216;2023-09-19T00:11:03;100019.81;;;19.45;100.00
1207;BME280;593;53.184;8.216;2023-09-19T00:13:29;100024.88;;;19.43;100.00
1207;BME280;593;53.184;8.216;2023-09-19T00:15:56;100033.97;;;19.44;100.00
1207;BME280;593;53.184;8.216;2023-09-19T00:18:24;100042.13;;;19.40;100.00
1207;BME280;593;53.184;8.216;2023-09-19T00:20:57;100014.97;;;19.27;100.00
1207;BME280;593;53.184;8.216;2023-09-19T00:23:22;100034.56;;;19.37;100.00
1207;BME280;593;53.184;8.216;2023-09-19T00:25:48;100033.22;;;19.31;100.00
1207;BME280;593;53.184;8.216;2023-09-19T00:28:13;100032.03;;;19.32;100.00
1207;BME280;593;53.184;8.216;2023-09-19T00:30:45;100045.50;;;19.34;100.00
1207;BME280;593;53.184;8.216;2023-09-19T00:33:17;100034.72;;;19.29;100.00
1207;BME280;593;53.184;8.216;2023-09-19T00:35:54;100045.03;;;19.32;100.00
1207;BME280;593;53.184;8.216;2023-09-19T00:38:21;100042.63;;;19.30;100.00
1207;BME280;593;53.184;8.216;2023-09-19T00:40:48;100048.88;;;19.27;100.00
1207;BME280;593;53.184;8.216;2023-09-19T00:43:14;100048.88;;;19.27;100.00
1207;BME280;593;53.184;8.216;2023-09-19T00:45:43;100042.72;;;19.18;100.00
1207;BME280;593;53.184;8.216;2023-09-19T00:48:09;100068.53;;;19.26;100.00
1207;BME280;593;53.184;8.216;2023-09-19T00:50:35;100037.38;;;19.09;100.00
1207;BME280;593;53.184;8.216;2023-09-19T00:53:02;100056.97;;;19.20;100.00
1207;BME280;593;53.184;8.216;2023-09-19T00:55:34;100042.63;;;19.14;100.00
1207;BME280;593;53.184;8.216;2023-09-19T00:58:01;100062.38;;;19.16;100.00
1207;BME280;593;53.184;8.216;2023-09-19T01:00:26;100067.53;;;19.18;100.00
1207;BME280;593;53.184;8.216;2023-09-19T01:02:53;100067.00;;;19.12;100.00
1207;BME280;593;53.184;8.216;2023-09-19T01:05:19;100078.72;;;19.09;100.00
1207;BME280;593;53.184;8.216;2023-09-19T01:07:45;100085.06;;;19.10;100.00
1207;BME280;593;53.184;8.216;2023-09-19T01:10:17;100098.47;;;19.11;100.00
1207;BME280;593;53.184;8.216;2023-09-19T01:21:21;100094.66;;;19.00;100.00
1207;BME280;593;53.184;8.216;2023-09-19T01:27:02;100096.84;;;18.95;100.00
1207;BME280;593;53.184;8.216;2023-09-19T01:29:50;100108.31;;;18.97;100.00
1207;BME280;593;53.184;8.216;2023-09-19T01:32:19;100108.69;;;18.95;100.00
1207;BME280;593;53.184;8.216;2023-09-19T01:34:55;100117.28;;;18.94;100.00
1207;BME280;593;53.184;8.216;2023-09-19T01:37:28;100111.25;;;18.88;100.00
1207;BME280;593;53.184;8.216;2023-09-19T01:39:59;100114.00;;;18.88;100.00
1207;BME280;593;53.184;8.216;2023-09-19T01:48:54;100114.25;;;18.83;100.00
1207;BME280;593;53.184;8.216;2023-09-19T01:51:42;100118.50;;;18.81;100.00
1207;BME280;593;53.184;8.216;2023-09-19T01:54:12;100113.59;;;18.74;100.00
1207;BME280;593;53.184;8.216;2023-09-19T01:56:54;100121.50;;;18.76;100.00
1207;BME280;593;53.184;8.216;2023-09-19T01:59:26;100121.50;;;18.76;100.00
1207;BME280;593;53.184;8.216;2023-09-19T02:01:54;100119.00;;;18.71;100.00
1207;BME280;593;53.184;8.216;2023-09-19T02:04:20;100120.25;;;18.73;100.00
1207;BME280;593;53.184;8.216;2023-09-19T02:06:45;100114.56;;;18.66;100.00
1207;BME280;593;53.184;8.216;2023-09-19T02:09:14;100113.38;;;18.67;100.00
1207;BME280;593;53.184;8.216;2023-09-19T02:11:43;100117.31;;;18.66;100.00
1207;BME280;593;53.184;8.216;2023-09-19T02:14:08;100118.81;;;18.64;100.00
1207;BME280;593;53.184;8.216;2023-09-19T02:16:37;100125.34;;;18.59;100.00
1207;BME280;593;53.184;8.216;2023-09-19T02:19:02;100119.81;;;18.59;100.00
1207;BME280;593;53.184;8.216;2023-09-19T02:21:31;100118.13;;;18.54;100.00
1207;BME280;593;53.184;8.216;2023-09-19T02:23:57;100133.84;;;18.54;100.00
1207;BME280;593;53.184;8.216;2023-09-19T02:26:22;100136.06;;;18.48;100.00
1207;BME280;593;53.184;8.216;2023-09-19T02:28:48;100140.84;;;18.51;100.00
1207;BME280;593;53.184;8.216;2023-09-19T02:31:13;100127.88;;;18.40;100.00
1207;BME280;593;53.184;8.216;2023-09-19T02:33:39;100144.97;;;18.45;100.00
1207;BME280;593;53.184;8.216;2023-09-19T02:36:04;100152.44;;;18.45;100.00
1207;BME280;593;53.184;8.216;2023-09-19T02:38:30;100151.06;;;18.39;100.00
1207;BME280;593;53.184;8.216;2023-09-19T02:40:55;100138.25;;;18.31;100.00
1207;BME280;593;53.184;8.216;2023-09-19T02:43:22;100141.44;;;18.33;100.00
1207;BME280;593;53.184;8.216;2023-09-19T02:45:48;100153.59;;;18.32;100.00
1207;BME280;593;53.184;8.216;2023-09-19T02:48:18;100147.66;;;18.30;100.00
1207;BME280;593;53.184;8.216;2023-09-19T02:50:43;100152.69;;;18.28;100.00
1207;BME280;593;53.184;8.216;2023-09-19T02:53:09;100147.44;;;18.23;100.00
1207;BME280;593;53.184;8.216;2023-09-19T02:55:38;100140.31;;;18.22;100.00
1207;BME280;593;53.184;8.216;2023-09-19T02:58:05;100144.91;;;18.18;100.00
1207;BME280;593;53.184;8.216;2023-09-19T03:00:33;100148.81;;;18.17;100.00
1207;BME280;593;53.184;8.216;2023-09-19T03:02:59;100151.09;;;18.15;100.00
1207;BME280;593;53.184;8.216;2023-09-19T03:05:25;100152.47;;;18.09;100.00
1207;BME280;593;53.184;8.216;2023-09-19T03:07:51;100152.00;;;18.07;100.00
1207;BME280;593;53.184;8.216;2023-09-19T03:10:19;100152.00;;;18.07;100.00
1207;BME280;593;53.184;8.216;2023-09-19T03:12:47;100154.56;;;18.00;100.00
1207;BME280;593;53.184;8.216;2023-09-19T03:15:14;100158.47;;;17.99;100.00
1207;BME280;593;53.184;8.216;2023-09-19T03:17:43;100166.72;;;17.99;100.00
1207;BME280;593;53.184;8.216;2023-09-19T03:20:09;100166.13;;;17.93;100.00
1207;BME280;593;53.184;8.216;2023-09-19T03:22:37;100181.50;;;17.94;100.00
1207;BME280;593;53.184;8.216;2023-09-19T03:25:03;100163.63;;;17.88;100.00
1207;BME280;593;53.184;8.216;2023-09-19T03:27:33;100171.50;;;17.89;100.00
1207;BME280;593;53.184;8.216;2023-09-19T03:29:59;100181.25;;;17.87;100.00
1207;BME280;593;53.184;8.216;2023-09-19T03:32:24;100183.91;;;17.83;100.00
1207;BME280;593;53.184;8.216;2023-09-19T03:34:50;100168.41;;;17.79;100.00
1207;BME280;593;53.184;8.216;2023-09-19T03:37:15;100181.03;;;17.80;100.00
1207;BME280;593;53.184;8.216;2023-09-19T03:39:41;100180.56;;;17.78;100.00
1207;BME280;593;53.184;8.216;2023-09-19T03:42:06;100182.06;;;17.75;100.00
1207;BME280;593;53.184;8.216;2023-09-19T03:44:32;100180.44;;;17.74;100.00
1207;BME280;593;53.184;8.216;2023-09-19T03:46:58;100186.63;;;17.71;100.00
1207;BME280;593;53.184;8.216;2023-09-19T03:49:23;100171.94;;;17.67;100.00
1207;BME280;593;53.184;8.216;2023-09-19T03:51:48;100186.50;;;17.68;100.00
1207;BME280;593;53.184;8.216;2023-09-19T03:54:14;100185.56;;;17.64;100.00
1207;BME280;593;53.184;8.216;2023-09-19T03:56:39;100182.81;;;17.64;100.00
1207;BME280;593;53.184;8.216;2023-09-19T03:59:05;100195.81;;;17.63;100.00
1207;BME280;593;53.184;8.216;2023-09-19T04:01:30;100190.50;;;17.58;100.00
1207;BME280;593;53.184;8.216;2023-09-19T04:03:57;100183.41;;;17.57;100.00
1207;BME280;593;53.184;8.216;2023-09-19T04:06:23;100194.75;;;17.56;100.00
1207;BME280;593;53.184;8.216;2023-09-19T04:08:48;100188.91;;;17.57;100.00
1207;BME280;593;53.184;8.216;2023-09-19T04:11:13;100183.75;;;17.56;100.00
1207;BME280;593;53.184;8.216;2023-09-19T04:13:39;100187.16;;;17.53;100.00
1207;BME280;593;53.184;8.216;2023-09-19T04:16:04;100191.38;;;17.50;100.00
1207;BME280;593;53.184;8.216;2023-09-19T04:18:30;100183.44;;;17.49;100.00
1207;BME280;593;53.184;8.216;2023-09-19T04:21:02;100181.03;;;17.47;100.00
1207;BME280;593;53.184;8.216;2023-09-19T04:23:31;100170.63;;;17.41;100.00
1207;BME280;593;53.184;8.216;2023-09-19T04:25:57;100173.81;;;17.43;100.00
1207;BME280;593;53.184;8.216;2023-09-19T04:28:22;100172.19;;;17.42;100.00
1207;BME280;593;53.184;8.216;2023-09-19T04:30:48;100185.50;;;17.40;100.00
1207;BME280;593;53.184;8.216;2023-09-19T04:33:13;100189.88;;;17.41;100.00
1207;BME280;593;53.184;8.216;2023-09-19T04:35:40;100195.56;;;17.36;100.00
1207;BME280;593;53.184;8.216;2023-09-19T04:38:07;100188.59;;;17.38;100.00
1207;BME280;593;53.184;8.216;2023-09-19T04:40:32;100192.03;;;17.35;100.00
1207;BME280;593;53.184;8.216;2023-09-19T04:42:59;100198.31;;;17.36;100.00
1207;BME280;593;53.184;8.216;2023-09-19T04:45:28;100202.22;;;17.35;100.00
1207;BME280;593;53.184;8.216;2023-09-19T04:47:54;100208.06;;;17.33;100.00
1207;BME280;593;53.184;8.216;2023-09-19T04:50:20;100204.03;;;17.30;100.00
1207;BME280;593;53.184;8.216;2023-09-19T04:52:49;100221.66;;;17.29;100.00
1207;BME280;593;53.184;8.216;2023-09-19T04:55:17;100217.28;;;17.28;100.00
1207;BME280;593;53.184;8.216;2023-09-19T04:57:50;100214.91;;;17.27;100.00
1207;BME280;593;53.184;8.216;2023-09-19T05:00:17;100230.94;;;17.25;100.00
1207;BME280;593;53.184;8.216;2023-09-19T05:02:45;100231.59;;;17.22;100.00
1207;BME280;593;53.184;8.216;2023-09-19T05:05:11;100236.63;;;17.20;100.00
1207;BME280;593;53.184;8.216;2023-09-19T05:07:38;100235.47;;;17.21;100.00
1207;BME280;593;53.184;8.216;2023-09-19T05:10:04;100231.00;;;17.16;100.00
1207;BME280;593;53.184;8.216;2023-09-19T05:12:34;100235.00;;;17.19;100.00
1207;BME280;593;53.184;8.216;2023-09-19T05:15:00;100211.44;;;17.18;100.00
1207;BME280;593;53.184;8.216;2023-09-19T05:17:27;100204.53;;;17.12;100.00
1207;BME280;593;53.184;8.216;2023-09-19T05:19:52;100228.59;;;17.15;100.00
1207;BME280;593;53.184;8.216;2023-09-19T05:22:18;100228.13;;;17.13;100.00
1207;BME280;593;53.184;8.216;2023-09-19T05:24:43;100237.50;;;17.12;100.00
1207;BME280;593;53.184;8.216;2023-09-19T05:27:14;100227.31;;;17.12;100.00
1207;BME280;593;53.184;8.216;2023-09-19T05:29:44;100220.19;;;17.11;100.00
1207;BME280;593;53.184;8.216;2023-09-19T05:32:10;100218.25;;;17.12;100.00
1207;BME280;593;53.184;8.216;2023-09-19T05:34:37;100219.06;;;17.12;100.00
1207;BME280;593;53.184;8.216;2023-09-19T05:37:03;100226.41;;;17.08;100.00
1207;BME280;593;53.184;8.216;2023-09-19T05:39:28;100232.22;;;17.07;100.00
1207;BME280;593;53.184;8.216;2023-09-19T05:41:54;100237.84;;;17.10;100.00
1207;BME280;593;53.184;8.216;2023-09-19T05:44:20;100243.34;;;17.10;100.00
1207;BME280;593;53.184;8.216;2023-09-19T05:46:45;100240.25;;;17.12;100.00
1207;BME280;593;53.184;8.216;2023-09-19T05:49:13;100241.25;;;17.07;100.00
1207;BME280;593;53.184;8.216;2023-09-19T05:51:38;100242.53;;;17.10;100.00
1207;BME280;593;53.184;8.216;2023-09-19T05:54:03;100260.66;;;17.11;100.00
1207;BME280;593;53.184;8.216;2023-09-19T05:56:30;100253.06;;;17.08;100.00
1207;BME280;593;53.184;8.216;2023-09-19T05:58:56;100267.72;;;17.12;100.00
1207;BME280;593;53.184;8.216;2023-09-19T06:01:21;100268.19;;;17.14;100.00
1207;BME280;593;53.184;8.216;2023-09-19T06:03:47;100243.47;;;17.14;100.00
1207;BME280;593;53.184;8.216;2023-09-19T06:06:13;100244.16;;;17.11;100.00
1207;BME280;593;53.184;8.216;2023-09-19T06:08:38;100243.94;;;17.16;100.00
1207;BME280;593;53.184;8.216;2023-09-19T06:11:03;100244.28;;;17.14;100.00
1207;BME280;593;53.184;8.216;2023-09-19T06:13:34;100246.69;;;17.16;100.00
1207;BME280;593;53.184;8.216;2023-09-19T06:15:59;100255.72;;;17.16;100.00
1207;BME280;593;53.184;8.216;2023-09-19T06:18:28;100260.09;;;17.17;100.00
1207;BME280;593;53.184;8.216;2023-09-19T06:20:54;100266.72;;;17.16;100.00
1207;BME280;593;53.184;8.216;2023-09-19T06:23:21;100271.91;;;17.18;100.00
1207;BME280;593;53.184;8.216;2023-09-19T06:25:46;100271.56;;;17.19;100.00
1207;BME280;593;53.184;8.216;2023-09-19T06:28:12;100265.94;;;17.16;100.00
1207;BME280;593;53.184;8.216;2023-09-19T06:30:37;100273.63;;;17.22;100.00
1207;BME280;593;53.184;8.216;2023-09-19T06:33:06;100265.38;;;17.22;100.00
1207;BME280;593;53.184;8.216;2023-09-19T06:35:33;100265.72;;;17.21;100.00
1207;BME280;593;53.184;8.216;2023-09-19T06:37:58;100274.44;;;17.23;100.00
1207;BME280;593;53.184;8.216;2023-09-19T06:40:24;100279.13;;;17.22;100.00
1207;BME280;593;53.184;8.216;2023-09-19T06:42:53;100296.91;;;17.25;100.00
1207;BME280;593;53.184;8.216;2023-09-19T06:45:19;100299.66;;;17.25;100.00
1207;BME280;593;53.184;8.216;2023-09-19T06:47:45;100306.75;;;17.26;100.00
1207;BME280;593;53.184;8.216;2023-09-19T06:50:11;100306.75;;;17.26;100.00
1207;BME280;593;53.184;8.216;2023-09-19T06:52:40;100298.03;;;17.24;100.00
1207;BME280;593;53.184;8.216;2023-09-19T06:55:06;100308.00;;;17.28;100.00
1207;BME280;593;53.184;8.216;2023-09-19T06:57:32;100296.25;;;17.28;100.00
1207;BME280;593;53.184;8.216;2023-09-19T06:59:57;100305.63;;;17.27;100.00
1207;BME280;593;53.184;8.216;2023-09-19T07:02:22;100307.56;;;17.26;100.00
1207;BME280;593;53.184;8.216;2023-09-19T07:04:48;100308.72;;;17.25;100.00
1207;BME280;593;53.184;8.216;2023-09-19T07:07:15;100308.50;;;17.30;100.00
1207;BME280;593;53.184;8.216;2023-09-19T07:09:40;100319.50;;;17.30;100.00
1207;BME280;593;53.184;8.216;2023-09-19T07:12:07;100314.47;;;17.33;100.00
1207;BME280;593;53.184;8.216;2023-09-19T07:14:32;100320.09;;;17.36;100.00
1207;BME280;593;53.184;8.216;2023-09-19T07:16:58;100326.75;;;17.35;100.00
1207;BME280;593;53.184;8.216;2023-09-19T07:19:25;100327.06;;;17.33;100.00
1207;BME280;593;53.184;8.216;2023-09-19T07:21:56;100327.88;;;17.34;100.00
1207;BME280;593;53.184;8.216;2023-09-19T07:24:24;100324.44;;;17.37;100.00
1207;BME280;593;53.184;8.216;2023-09-19T07:26:51;100309.56;;;17.38;100.00
1207;BME280;593;53.184;8.216;2023-09-19T07:29:17;100324.25;;;17.42;100.00
1207;BME280;593;53.184;8.216;2023-09-19T07:31:42;100315.34;;;17.45;100.00
1207;BME280;593;53.184;8.216;2023-09-19T07:34:09;100318.53;;;17.47;100.00
1207;BME280;593;53.184;8.216;2023-09-19T07:36:36;100325.31;;;17.50;100.00
1207;BME280;593;53.184;8.216;2023-09-19T07:39:05;100314.66;;;17.48;100.00
1207;BME280;593;53.184;8.216;2023-09-19T07:41:32;100323.53;;;17.54;100.00
1207;BME280;593;53.184;8.216;2023-09-19T07:43:58;100316.53;;;17.56;100.00
1207;BME280;593;53.184;8.216;2023-09-19T07:46:23;100313.47;;;17.58;100.00
1207;BME280;593;53.184;8.216;2023-09-19T07:48:49;100317.59;;;17.64;100.00
1207;BME280;593;53.184;8.216;2023-09-19T07:51:15;100319.59;;;17.63;100.00
1207;BME280;593;53.184;8.216;2023-09-19T07:53:41;100322.59;;;17.70;100.00
1207;BME280;593;53.184;8.216;2023-09-19T07:56:08;100325.44;;;17.74;100.00
1207;BME280;593;53.184;8.216;2023-09-19T07:58:35;100327.88;;;17.75;100.00
1207;BME280;593;53.184;8.216;2023-09-19T08:01:05;100322.03;;;17.77;100.00
1207;BME280;593;53.184;8.216;2023-09-19T08:03:32;100325.59;;;17.77;99.21
1207;BME280;593;53.184;8.216;2023-09-19T08:05:57;100325.72;;;17.81;98.98
1207;BME280;593;53.184;8.216;2023-09-19T08:08:23;100319.88;;;17.82;98.13
1207;BME280;593;53.184;8.216;2023-09-19T08:10:56;100321.94;;;17.85;97.88
1207;BME280;593;53.184;8.216;2023-09-19T08:13:25;100324.03;;;17.88;98.91
1207;BME280;593;53.184;8.216;2023-09-19T08:15:52;100324.59;;;17.94;98.14
1207;BME280;593;53.184;8.216;2023-09-19T08:18:20;100325.09;;;17.96;97.31
1207;BME280;593;53.184;8.216;2023-09-19T08:20:52;100321.31;;;18.01;97.92
1207;BME280;593;53.184;8.216;2023-09-19T08:23:18;100326.34;;;17.99;96.15
1207;BME280;593;53.184;8.216;2023-09-19T08:25:47;100323.91;;;17.97;96.38
1207;BME280;593;53.184;8.216;2023-09-19T08:28:13;100333.69;;;18.07;96.27
1207;BME280;593;53.184;8.216;2023-09-19T08:30:43;100329.34;;;18.06;96.14
1207;BME280;593;53.184;8.216;2023-09-19T08:36:30;100338.75;;;18.17;96.61
1207;BME280;593;53.184;8.216;2023-09-19T08:38:56;100320.31;;;18.17;97.00
1207;BME280;593;53.184;8.216;2023-09-19T08:41:21;100316.97;;;18.24;96.52
1207;BME280;593;53.184;8.216;2023-09-19T08:43:46;100327.78;;;18.29;94.60
1207;BME280;593;53.184;8.216;2023-09-19T08:46:16;100324.69;;;18.18;94.71
1207;BME280;593;53.184;8.216;2023-09-19T08:51:41;100339.59;;;18.29;93.94
1207;BME280;593;53.184;8.216;2023-09-19T08:54:15;100342.13;;;18.34;93.77
1207;BME280;593;53.184;8.216;2023-09-19T08:56:46;100331.69;;;18.28;92.91
1207;BME280;593;53.184;8.216;2023-09-19T08:59:12;100344.88;;;18.34;91.55
1207;BME280;593;53.184;8.216;2023-09-19T09:01:38;100357.97;;;18.37;91.53
1207;BME280;593;53.184;8.216;2023-09-19T09:04:08;100348.22;;;18.40;90.96
1207;BME280;593;53.184;8.216;2023-09-19T09:06:38;100343.84;;;18.39;91.68
1207;BME280;593;53.184;8.216;2023-09-19T09:09:04;100346.59;;;18.39;92.23
1207;BME280;593;53.184;8.216;2023-09-19T09:14:48;100348.81;;;18.45;92.07
1207;BME280;593;53.184;8.216;2023-09-19T09:17:15;100352.84;;;18.48;92.26
1207;BME280;593;53.184;8.216;2023-09-19T09:19:41;100355.38;;;18.53;92.05
1207;BME280;593;53.184;8.216;2023-09-19T09:22:11;100362.97;;;18.56;91.53
1207;BME280;593;53.184;8.216;2023-09-19T09:24:37;100366.50;;;18.56;91.00
1207;BME280;593;53.184;8.216;2023-09-19T09:27:05;100366.75;;;18.51;91.87
1207;BME280;593;53.184;8.216;2023-09-19T09:32:31;100366.78;;;18.64;92.49
1207;BME280;593;53.184;8.216;2023-09-19T09:35:06;100372.28;;;18.64;91.42
1207;BME280;593;53.184;8.216;2023-09-19T09:37:34;100366.19;;;18.70;91.43
1207;BME280;593;53.184;8.216;2023-09-19T09:40:04;100370.09;;;18.69;91.22
1207;BME280;593;53.184;8.216;2023-09-19T09:42:56;100353.44;;;18.66;90.43
1207;BME280;593;53.184;8.216;2023-09-19T09:45:24;100355.53;;;18.69;90.52
1207;BME280;593;53.184;8.216;2023-09-19T09:47:59;100352.19;;;18.75;90.84
1207;BME280;593;53.184;8.216;2023-09-19T09:50:46;100348.28;;;18.76;89.88
1207;BME280;593;53.184;8.216;2023-09-19T09:56:04;100362.53;;;18.78;90.05
1207;BME280;593;53.184;8.216;2023-09-19T09:58:34;100368.50;;;18.80;89.77
1207;BME280;593;53.184;8.216;2023-09-19T10:01:05;100341.25;;;18.67;90.16
1207;BME280;593;53.184;8.216;2023-09-19T10:03:38;100364.25;;;18.83;89.42
1207;BME280;593;53.184;8.216;2023-09-19T10:06:14;100369.75;;;18.83;88.12
1207;BME280;593;53.184;8.216;2023-09-19T10:09:08;100373.41;;;18.87;87.37
1207;BME280;593;53.184;8.216;2023-09-19T10:11:44;100370.66;;;18.87;88.21
1207;BME280;593;53.184;8.216;2023-09-19T10:14:16;100371.47;;;18.87;88.05
1207;BME280;593;53.184;8.216;2023-09-19T10:16:48;100356.19;;;18.90;88.56
1207;BME280;593;53.184;8.216;2023-09-19T10:19:17;100372.06;;;18.93;89.15
1207;BME280;593;53.184;8.216;2023-09-19T10:21:47;100366.31;;;18.98;88.47
1207;BME280;593;53.184;8.216;2023-09-19T10:24:14;100368.81;;;19.03;87.74
1207;BME280;593;53.184;8.216;2023-09-19T10:26:41;100359.50;;;19.07;88.11
1207;BME280;593;53.184;8.216;2023-09-19T10:29:09;100341.03;;;18.96;87.98
1207;BME280;593;53.184;8.216;2023-09-19T10:31:36;100367.56;;;19.12;88.03
1207;BME280;593;53.184;8.216;2023-09-19T10:37:12;100352.28;;;19.15;86.67
1207;BME280;593;53.184;8.216;2023-09-19T10:39:39;100365.47;;;19.21;86.59
1207;BME280;593;53.184;8.216;2023-09-19T10:42:06;100365.13;;;19.23;86.59
1207;BME280;593;53.184;8.216;2023-09-19T10:44:33;100355.34;;;19.26;85.34
1207;BME280;593;53.184;8.216;2023-09-19T10:46:58;100351.78;;;19.25;83.96
1207;BME280;593;53.184;8.216;2023-09-19T10:49:24;100363.47;;;19.34;83.94
1207;BME280;593;53.184;8.216;2023-09-19T10:51:54;100357.63;;;19.36;83.55
1207;BME280;593;53.184;8.216;2023-09-19T10:54:22;100367.78;;;19.44;84.03
1207;BME280;593;53.184;8.216;2023-09-19T10:56:52;100356.00;;;19.47;83.57
1207;BME280;593;53.184;8.216;2023-09-19T10:59:19;100363.34;;;19.55;83.03
1207;BME280;593;53.184;8.216;2023-09-19T11:01:51;100359.91;;;19.58;82.50
1207;BME280;593;53.184;8.216;2023-09-19T11:04:28;100349.66;;;19.58;82.29
1207;BME280;593;53.184;8.216;2023-09-19T11:07:09;100353.00;;;19.64;81.93
1207;BME280;593;53.184;8.216;2023-09-19T11:09:58;100357.09;;;19.70;81.62
1207;BME280;593;53.184;8.216;2023-09-19T11:12:47;100362.72;;;19.73;80.65
1207;BME280;593;53.184;8.216;2023-09-19T11:27:09;100355.53;;;19.84;78.54
1207;BME280;593;53.184;8.216;2023-09-19T11:29:35;100350.81;;;19.85;78.73
1207;BME280;593;53.184;8.216;2023-09-19T11:32:01;100357.72;;;19.91;79.03
1207;BME280;593;53.184;8.216;2023-09-19T11:37:01;100353.19;;;19.99;78.81
1207;BME280;593;53.184;8.216;2023-09-19T11:39:29;100350.16;;;20.04;77.89
1207;BME280;593;53.184;8.216;2023-09-19T11:41:55;100345.53;;;20.08;78.27
1207;BME280;593;53.184;8.216;2023-09-19T11:44:33;100346.34;;;20.08;77.35
1207;BME280;593;53.184;8.216;2023-09-19T11:47:00;100342.16;;;20.14;77.52
1207;BME280;593;53.184;8.216;2023-09-19T11:49:30;100332.28;;;20.13;76.63
1207;BME280;593;53.184;8.216;2023-09-19T11:51:57;100326.75;;;20.13;76.64
1207;BME280;593;53.184;8.216;2023-09-19T11:54:26;100332.00;;;20.18;76.19
1207;BME280;593;53.184;8.216;2023-09-19T11:56:57;100344.41;;;20.24;76.92
1207;BME280;593;53.184;8.216;2023-09-19T11:59:28;100340.16;;;20.27;76.25
1207;BME280;593;53.184;8.216;2023-09-19T12:02:03;100328.31;;;20.26;76.50
1207;BME280;593;53.184;8.216;2023-09-19T12:04:34;100326.88;;;20.32;75.57
1207;BME280;593;53.184;8.216;2023-09-19T12:07:05;100324.22;;;20.36;76.50
1207;BME280;593;53.184;8.216;2023-09-19T12:09:35;100325.91;;;20.40;76.50
1207;BME280;593;53.184;8.216;2023-09-19T12:12:01;100339.34;;;20.42;75.43
1207;BME280;593;53.184;8.216;2023-09-19T12:14:26;100346.06;;;20.41;74.51
1207;BME280;593;53.184;8.216;2023-09-19T12:16:55;100328.31;;;20.42;74.84
1207;BME280;593;53.184;8.216;2023-09-19T12:19:22;100322.97;;;20.49;77.45
1207;BME280;593;53.184;8.216;2023-09-19T12:21:59;100325.09;;;20.56;76.61
1207;BME280;593;53.184;8.216;2023-09-19T12:24:30;100311.19;;;20.52;74.92
1207;BME280;593;53.184;8.216;2023-09-19T12:27:03;100307.72;;;20.55;76.35
1207;BME280;593;53.184;8.216;2023-09-19T12:29:31;100291.41;;;20.50;74.95
1207;BME280;593;53.184;8.216;2023-09-19T12:31:58;100316.44;;;20.57;74.97
1207;BME280;593;53.184;8.216;2023-09-19T12:34:24;100289.59;;;20.58;74.51
1207;BME280;593;53.184;8.216;2023-09-19T12:37:21;100290.16;;;20.63;76.66
1207;BME280;593;53.184;8.216;2023-09-19T12:39:51;100312.44;;;20.70;77.34
1207;BME280;593;53.184;8.216;2023-09-19T12:42:24;100290.03;;;20.75;77.94
1207;BME280;593;53.184;8.216;2023-09-19T12:44:54;100273.06;;;20.77;78.03
1207;BME280;593;53.184;8.216;2023-09-19T12:47:23;100280.75;;;20.83;77.79
1207;BME280;593;53.184;8.216;2023-09-19T12:52:39;100266.97;;;20.87;76.98
1207;BME280;593;53.184;8.216;2023-09-19T12:55:05;100275.47;;;20.94;77.23
1207;BME280;593;53.184;8.216;2023-09-19T12:57:32;100267.16;;;20.94;76.00
1207;BME280;593;53.184;8.216;2023-09-19T13:00:03;100268.22;;;20.89;74.68
1207;BME280;593;53.184;8.216;2023-09-19T13:02:32;100260.41;;;20.91;75.03
1207;BME280;593;53.184;8.216;2023-09-19T13:04:59;100252.09;;;20.91;74.38
1207;BME280;593;53.184;8.216;2023-09-19T13:07:53;100257.25;;;20.93;74.20
1207;BME280;593;53.184;8.216;2023-09-19T13:10:19;100253.09;;;20.83;74.42
1207;BME280;593;53.184;8.216;2023-09-19T13:12:49;100257.63;;;20.91;75.87
1207;BME280;593;53.184;8.216;2023-09-19T13:15:15;100253.34;;;20.94;76.49
1207;BME280;593;53.184;8.216;2023-09-19T13:17:49;100258.94;;;20.97;73.83
1207;BME280;593;53.184;8.216;2023-09-19T13:20:21;100280.19;;;20.93;73.33
1207;BME280;593;53.184;8.216;2023-09-19T13:22:53;100274.41;;;20.83;72.52
1207;BME280;593;53.184;8.216;2023-09-19T13:25:21;100258.19;;;20.81;73.17
1207;BME280;593;53.184;8.216;2023-09-19T13:27:54;100269.75;;;20.87;75.27
1207;BME280;593;53.184;8.216;2023-09-19T13:30:22;100244.88;;;20.87;74.21
1207;BME280;593;53.184;8.216;2023-09-19T13:32:48;100244.44;;;20.85;74.68
1207;BME280;593;53.184;8.216;2023-09-19T13:35:14;100243.28;;;20.86;73.64
1207;BME280;593;53.184;8.216;2023-09-19T13:37:43;100250.41;;;20.87;73.98
1207;BME280;593;53.184;8.216;2023-09-19T13:40:14;100236.94;;;20.85;73.27
1207;BME280;593;53.184;8.216;2023-09-19T13:42:39;100240.50;;;20.86;73.24
1207;BME280;593;53.184;8.216;2023-09-19T13:45:05;100237.81;;;20.89;74.87
1207;BME280;593;53.184;8.216;2023-09-19T13:47:31;100242.19;;;20.90;73.69
1207;BME280;593;53.184;8.216;2023-09-19T13:49:58;100244.94;;;20.90;73.36
1207;BME280;593;53.184;8.216;2023-09-19T13:52:23;100232.66;;;20.88;71.65
1207;BME280;593;53.184;8.216;2023-09-19T13:54:52;100229.44;;;20.86;72.21
1207;BME280;593;53.184;8.216;2023-09-19T13:57:24;100232.28;;;20.89;73.37
1207;BME280;593;53.184;8.216;2023-09-19T13:59:49;100224.34;;;20.88;72.73
1207;BME280;593;53.184;8.216;2023-09-19T14:02:15;100228.75;;;20.89;73.04
1207;BME280;593;53.184;8.216;2023-09-19T14:04:43;100235.94;;;20.93;73.25
1207;BME280;593;53.184;8.216;2023-09-19T14:07:09;100225.59;;;20.90;73.99
1207;BME280;593;53.184;8.216;2023-09-19T14:09:34;100230.84;;;20.95;73.13
1207;BME280;593;53.184;8.216;2023-09-19T14:11:59;100227.28;;;20.95;73.71
1207;BME280;593;53.184;8.216;2023-09-19T14:14:25;100228.88;;;20.96;74.82